Hyderabad, Pakistan
Current Conditions -  °F | °C
As of 1:00 PM on Tuesday 21 Oct 2014 (Local Time) from OPNH Reporting Station
Haze Haze  
Wind Chill: 97°   Ceiling: Unl
Heat Index: 97°   Visibility: 3mi
Dew Point: 59°   Wind: 0mph
Humidity: 28%   Direction: NA
Pressure: 29.94"   Gusts: NA
Location:  25.38°N, 68.37°E
Report Text: OPNH 210800Z 00000KT 5000M HZ NSC 36/15 Q1014
Loading
Personal Weather Stations






























Interactive Weather Map New forecast layout! Learn more

10-Day Weather Forecast

Advertisements
Track Severe Weather on mobile